Mildura, Australia
Current Conditions -  °F | °C
As of 5:00 AM on Monday 26 Jan 2015 (Local Time) from YMIA Reporting Station
Clear Clear  
Wind Chill: 55°   Ceiling: Unl
Heat Index: 55°   Visibility: 6mi
Dew Point: 41°   Wind: 8mph
Humidity: 58%   Direction: 190°S
Pressure: 29.94"   Gusts: NA
Location:  34.18°S, 142.17°E
Report Text: YMIA 251800Z AUTO 19007KT 9999 // NCD 13/05 Q1014
Loading
Personal Weather Stations






























Interactive Weather Map New forecast layout! Learn more

10-Day Weather Forecast

Advertisements
Track Severe Weather on mobile